createdAt,value
2018-10-16T00:00:18.417Z,13.30
2018-10-16T00:02:47.107Z,13.30
2018-10-16T00:05:16.022Z,13.30
2018-10-16T00:07:44.185Z,13.20
2018-10-16T00:10:12.386Z,13.10
2018-10-16T00:12:40.590Z,13.10
2018-10-16T00:15:09.786Z,13.10
2018-10-16T00:17:37.964Z,13.10
2018-10-16T00:20:06.506Z,13.10
2018-10-16T00:22:34.641Z,13.00
2018-10-16T00:25:02.833Z,13.10
2018-10-16T00:27:31.025Z,13.00
2018-10-16T00:29:59.216Z,13.00
2018-10-16T00:32:27.406Z,13.00
2018-10-16T00:34:55.593Z,13.00
2018-10-16T00:37:23.754Z,13.00
2018-10-16T00:39:51.993Z,12.90
2018-10-16T00:42:20.142Z,12.90
2018-10-16T00:44:48.306Z,12.90
2018-10-16T00:47:16.506Z,12.80
2018-10-16T00:49:44.687Z,12.80
2018-10-16T00:52:12.865Z,12.80
2018-10-16T00:54:41.105Z,12.80
2018-10-16T00:57:09.246Z,12.90
2018-10-16T00:59:37.426Z,12.90
2018-10-16T01:02:05.786Z,12.90
2018-10-16T01:04:34.822Z,12.80
2018-10-16T01:07:02.929Z,12.80
2018-10-16T01:09:31.098Z,12.70
2018-10-16T01:11:59.299Z,12.70
2018-10-16T01:14:27.469Z,12.70
2018-10-16T01:16:55.678Z,12.60
2018-10-16T01:19:23.850Z,12.60
2018-10-16T01:21:52.062Z,12.50
2018-10-16T01:24:20.226Z,12.50
2018-10-16T01:26:48.430Z,12.50
2018-10-16T01:29:16.590Z,12.40
2018-10-16T01:31:44.694Z,12.40
2018-10-16T01:34:12.867Z,12.40
2018-10-16T01:36:41.058Z,12.30
2018-10-16T01:39:09.247Z,12.30
2018-10-16T01:41:37.462Z,12.30
2018-10-16T01:44:05.615Z,12.30
2018-10-16T01:46:33.822Z,12.20
2018-10-16T01:49:01.998Z,12.20
2018-10-16T01:51:30.206Z,12.20
2018-10-16T01:53:58.370Z,12.10
2018-10-16T01:56:26.551Z,12.10
2018-10-16T01:58:54.853Z,12.00
2018-10-16T02:01:23.030Z,12.00
2018-10-16T02:03:51.237Z,12.00
2018-10-16T02:06:19.403Z,11.90
2018-10-16T02:08:47.594Z,11.90
2018-10-16T02:11:15.761Z,11.90
2018-10-16T02:13:43.870Z,11.90
2018-10-16T02:16:12.046Z,11.90
2018-10-16T02:18:40.262Z,11.80
2018-10-16T02:21:08.541Z,11.80
2018-10-16T02:23:37.151Z,11.80
2018-10-16T02:26:05.626Z,11.70
2018-10-16T02:28:33.825Z,11.70
2018-10-16T02:31:01.983Z,11.80
2018-10-16T02:33:30.180Z,11.80
2018-10-16T02:35:58.370Z,11.80
2018-10-16T02:38:26.554Z,11.80
2018-10-16T02:40:54.847Z,11.80
2018-10-16T02:43:23.029Z,11.80
2018-10-16T02:45:51.211Z,11.80
2018-10-16T02:48:19.407Z,11.80
2018-10-16T02:50:47.578Z,11.70
2018-10-16T02:53:15.790Z,11.70
2018-10-16T02:55:43.966Z,11.70
2018-10-16T02:58:12.142Z,11.70
2018-10-16T03:00:40.338Z,11.70
2018-10-16T03:03:08.519Z,11.70
2018-10-16T03:05:36.715Z,11.70
2018-10-16T03:08:05.069Z,11.60
2018-10-16T03:10:33.198Z,11.60
2018-10-16T03:13:01.664Z,11.60
2018-10-16T03:15:29.765Z,11.60
2018-10-16T03:17:57.959Z,11.60
2018-10-16T03:20:26.195Z,11.60
2018-10-16T03:22:54.321Z,11.60
2018-10-16T03:25:22.514Z,11.60
2018-10-16T03:27:50.695Z,11.70
2018-10-16T03:30:18.894Z,11.70
2018-10-16T03:32:47.074Z,11.70
2018-10-16T03:35:15.257Z,11.70
2018-10-16T03:37:43.462Z,11.70
2018-10-16T03:40:12.143Z,11.70
2018-10-16T03:42:41.273Z,11.70
2018-10-16T03:45:11.006Z,11.70
2018-10-16T03:47:39.824Z,11.70
2018-10-16T03:50:08.714Z,11.70
2018-10-16T03:52:36.998Z,11.70
2018-10-16T03:55:05.637Z,11.70
2018-10-16T03:57:33.782Z,11.60
2018-10-16T04:00:01.956Z,11.60
2018-10-16T04:02:30.138Z,11.60
2018-10-16T04:04:58.322Z,11.60
2018-10-16T04:07:26.514Z,11.60
2018-10-16T04:09:54.890Z,11.60
2018-10-16T04:12:23.106Z,11.50
2018-10-16T04:14:51.299Z,11.50
2018-10-16T04:17:19.475Z,11.50
2018-10-16T04:19:47.642Z,11.50
2018-10-16T04:22:15.865Z,11.50
2018-10-16T04:24:44.012Z,11.40
2018-10-16T04:27:12.214Z,11.50
2018-10-16T04:29:40.383Z,11.40
2018-10-16T04:32:08.582Z,11.40
2018-10-16T04:34:36.790Z,11.30
2018-10-16T04:37:04.955Z,11.30
2018-10-16T04:39:33.149Z,11.30
2018-10-16T04:42:01.326Z,11.30
2018-10-16T04:44:29.506Z,11.30
2018-10-16T04:46:57.703Z,11.20
2018-10-16T04:49:25.882Z,11.20
2018-10-16T04:51:54.069Z,11.20
2018-10-16T04:54:22.262Z,11.10
2018-10-16T04:56:50.447Z,11.10
2018-10-16T04:59:18.627Z,11.10
2018-10-16T05:01:46.835Z,11.10
2018-10-16T05:04:15.081Z,11.10
2018-10-16T05:06:43.202Z,11.10
2018-10-16T05:09:11.400Z,11.10
2018-10-16T05:11:45.743Z,11.10
2018-10-16T05:14:13.919Z,11.10
2018-10-16T05:16:42.094Z,11.10
2018-10-16T05:19:10.385Z,11.10
2018-10-16T05:21:39.713Z,11.10
2018-10-16T05:24:08.727Z,11.10
2018-10-16T05:26:37.919Z,11.10
2018-10-16T05:29:06.638Z,11.00
2018-10-16T05:31:36.316Z,11.10
2018-10-16T05:34:04.535Z,11.00
2018-10-16T05:36:32.731Z,11.00
2018-10-16T05:39:00.935Z,11.00
2018-10-16T05:41:29.094Z,11.00
2018-10-16T05:43:57.271Z,10.90
2018-10-16T05:46:25.503Z,10.90
2018-10-16T05:48:53.809Z,10.80
2018-10-16T05:51:21.926Z,10.80
2018-10-16T05:53:50.114Z,10.80
2018-10-16T05:56:18.310Z,10.80
2018-10-16T05:58:46.546Z,10.80
2018-10-16T06:01:14.670Z,10.80
2018-10-16T06:03:42.858Z,10.80
2018-10-16T06:06:11.055Z,10.80
2018-10-16T06:08:39.239Z,10.80
2018-10-16T06:11:07.423Z,10.80
2018-10-16T06:13:35.630Z,10.80
2018-10-16T06:16:03.912Z,10.70
2018-10-16T06:18:32.001Z,10.70
2018-10-16T06:21:00.163Z,10.70
2018-10-16T06:23:28.373Z,10.70
2018-10-16T06:25:56.543Z,10.70
2018-10-16T06:28:27.047Z,10.70
2018-10-16T06:30:55.203Z,10.70
2018-10-16T06:33:28.798Z,10.70
2018-10-16T06:35:56.865Z,10.80
2018-10-16T06:38:25.051Z,10.80
2018-10-16T06:40:53.383Z,10.80
2018-10-16T06:43:21.426Z,10.80
2018-10-16T06:45:50.350Z,10.80
2018-10-16T06:48:18.867Z,10.80
2018-10-16T06:50:46.630Z,10.80
2018-10-16T06:53:14.825Z,10.80
2018-10-16T06:55:42.993Z,10.80
2018-10-16T06:58:11.183Z,10.90
2018-10-16T07:00:39.295Z,10.90
2018-10-16T07:03:07.661Z,11.00
2018-10-16T07:05:35.882Z,11.00
2018-10-16T07:08:04.013Z,11.10
2018-10-16T07:10:32.207Z,11.10
2018-10-16T07:13:00.409Z,11.10
2018-10-16T07:15:28.603Z,11.20
2018-10-16T07:17:56.769Z,11.20
2018-10-16T07:20:24.970Z,11.20
2018-10-16T07:22:53.152Z,11.30
2018-10-16T07:25:21.334Z,11.30
2018-10-16T07:27:49.515Z,11.30
2018-10-16T07:30:17.693Z,11.40
2018-10-16T07:32:45.912Z,11.50
2018-10-16T07:35:14.090Z,11.70
2018-10-16T07:37:42.282Z,11.80
2018-10-16T07:40:11.498Z,12.00
2018-10-16T07:42:39.981Z,12.10
2018-10-16T07:45:08.266Z,12.20
2018-10-16T07:47:36.807Z,12.30
2018-10-16T07:50:07.202Z,12.40
2018-10-16T07:52:35.311Z,12.50
2018-10-16T07:55:03.491Z,12.60
2018-10-16T07:57:31.654Z,12.70
2018-10-16T07:59:59.850Z,12.70
2018-10-16T08:02:27.946Z,12.80
2018-10-16T08:04:56.113Z,12.90
2018-10-16T08:07:24.306Z,13.00
2018-10-16T08:09:52.482Z,13.00
2018-10-16T08:12:20.674Z,13.10
2018-10-16T08:14:48.863Z,13.20
2018-10-16T08:17:17.101Z,13.20
2018-10-16T08:19:45.221Z,13.30
2018-10-16T08:22:13.418Z,13.30
2018-10-16T08:24:41.594Z,13.40
2018-10-16T08:27:09.793Z,13.50
2018-10-16T08:29:37.974Z,13.50
2018-10-16T08:32:06.161Z,13.60
2018-10-16T08:34:34.358Z,13.60
2018-10-16T08:37:02.549Z,13.70
2018-10-16T08:39:33.038Z,13.80
2018-10-16T08:44:15.498Z,13.80
2018-10-16T08:46:55.287Z,14.00
2018-10-16T08:49:34.799Z,14.20
2018-10-16T08:52:02.934Z,14.40
2018-10-16T08:54:31.109Z,14.60
2018-10-16T08:56:59.311Z,14.70
2018-10-16T08:59:27.607Z,15.00
2018-10-16T09:01:55.779Z,15.20
2018-10-16T09:04:23.975Z,15.40
2018-10-16T09:06:52.203Z,15.60
2018-10-16T09:09:20.268Z,15.90
2018-10-16T09:11:49.050Z,16.10
2018-10-16T09:14:17.698Z,16.30
2018-10-16T09:16:45.814Z,16.60
2018-10-16T09:19:14.013Z,16.90
2018-10-16T09:21:42.098Z,17.10
2018-10-16T09:24:10.286Z,17.40
2018-10-16T09:26:38.462Z,17.70
2018-10-16T09:29:06.779Z,18.00
2018-10-16T09:31:34.947Z,18.20
2018-10-16T09:34:03.058Z,18.50
2018-10-16T09:36:31.202Z,18.80
2018-10-16T09:38:59.396Z,19.10
2018-10-16T09:41:27.579Z,19.40
2018-10-16T09:43:55.777Z,19.70
2018-10-16T09:46:23.955Z,20.00
2018-10-16T09:48:52.141Z,20.30
2018-10-16T09:51:20.318Z,20.60
2018-10-16T09:53:48.530Z,20.80
2018-10-16T09:56:16.659Z,21.00
2018-10-16T09:58:44.746Z,21.10
2018-10-16T10:01:18.481Z,21.20
2018-10-16T10:03:46.586Z,21.40
2018-10-16T10:06:14.779Z,21.60
2018-10-16T10:08:42.957Z,21.90
2018-10-16T10:11:11.192Z,22.00
2018-10-16T10:13:39.346Z,22.20
2018-10-16T10:16:07.859Z,22.40
2018-10-16T10:18:36.038Z,22.60
2018-10-16T10:21:04.247Z,22.80
2018-10-16T10:23:32.388Z,23.00
2018-10-16T10:26:00.583Z,23.20
2018-10-16T10:28:28.775Z,23.40
2018-10-16T10:30:56.966Z,23.60
2018-10-16T10:33:25.054Z,23.80
2018-10-16T10:35:53.231Z,24.00
2018-10-16T10:38:21.399Z,24.10
2018-10-16T10:40:49.604Z,24.20
2018-10-16T10:43:17.786Z,24.30
2018-10-16T10:45:45.974Z,24.50
2018-10-16T10:48:14.165Z,24.70
2018-10-16T10:50:42.605Z,24.90
2018-10-16T10:53:10.443Z,25.00
2018-10-16T10:55:38.626Z,25.30
2018-10-16T10:58:06.919Z,25.50
2018-10-16T11:00:35.090Z,25.60
2018-10-16T11:03:03.339Z,25.80
2018-10-16T11:05:31.487Z,25.80
2018-10-16T11:07:59.646Z,26.00
2018-10-16T11:10:27.858Z,26.30
2018-10-16T11:12:55.957Z,26.40
2018-10-16T11:15:24.118Z,26.60
2018-10-16T11:17:52.301Z,26.40
2018-10-16T11:20:20.478Z,26.30
2018-10-16T11:22:48.673Z,26.40
2018-10-16T11:25:16.874Z,26.70
2018-10-16T11:27:45.040Z,26.80
2018-10-16T11:30:15.070Z,26.80
2018-10-16T11:32:43.370Z,26.90
2018-10-16T11:35:12.893Z,27.10
2018-10-16T11:37:41.106Z,27.20
2018-10-16T11:40:09.586Z,27.20
2018-10-16T11:42:37.756Z,27.50
2018-10-16T11:45:07.097Z,27.70
2018-10-16T11:47:35.478Z,27.90
2018-10-16T11:50:03.767Z,28.10
2018-10-16T11:52:31.834Z,28.00
2018-10-16T11:55:00.039Z,28.20
2018-10-16T11:57:28.216Z,28.30
2018-10-16T11:59:56.383Z,28.20
2018-10-16T12:02:24.663Z,27.90
2018-10-16T12:04:52.985Z,27.50
2018-10-16T12:07:21.091Z,27.40
2018-10-16T12:09:49.226Z,27.50
2018-10-16T12:12:17.432Z,27.50
2018-10-16T12:14:45.632Z,27.50
2018-10-16T12:17:33.627Z,27.20
2018-10-16T12:20:06.055Z,27.20
2018-10-16T12:22:34.147Z,27.40
2018-10-16T12:25:02.371Z,27.60
2018-10-16T12:27:30.522Z,27.70
2018-10-16T12:29:58.711Z,27.70
2018-10-16T12:32:26.894Z,27.80
2018-10-16T12:34:55.187Z,27.90
2018-10-16T12:37:23.399Z,27.80
2018-10-16T12:39:51.570Z,27.80
2018-10-16T12:42:19.738Z,28.00
2018-10-16T12:44:47.927Z,28.10
2018-10-16T12:47:16.111Z,28.30
2018-10-16T12:49:44.307Z,28.40
2018-10-16T12:52:12.402Z,28.50
2018-10-16T12:54:40.558Z,28.70
2018-10-16T12:57:08.798Z,28.60
2018-10-16T12:59:36.946Z,28.70
2018-10-16T13:02:05.132Z,28.80
2018-10-16T13:04:33.416Z,28.90
2018-10-16T13:07:05.787Z,29.00
2018-10-16T13:09:33.889Z,29.20
2018-10-16T13:12:02.084Z,29.30
2018-10-16T13:14:30.261Z,29.50
2018-10-16T13:16:58.488Z,29.60
2018-10-16T13:19:26.636Z,29.60
2018-10-16T13:21:54.710Z,29.60
2018-10-16T13:24:22.910Z,29.60
2018-10-16T13:26:51.011Z,29.50
2018-10-16T13:29:19.340Z,29.50
2018-10-16T13:31:47.354Z,29.50
2018-10-16T13:34:15.581Z,29.50
2018-10-16T13:36:43.712Z,29.50
2018-10-16T13:39:11.817Z,29.60
2018-10-16T13:41:40.929Z,29.50
2018-10-16T13:44:09.215Z,29.60
2018-10-16T13:46:37.227Z,29.60
2018-10-16T13:49:05.550Z,29.60
2018-10-16T13:51:34.010Z,29.60
2018-10-16T13:54:02.161Z,29.60
2018-10-16T13:56:30.362Z,29.60
2018-10-16T13:58:58.670Z,29.60
2018-10-16T14:01:26.843Z,29.50
2018-10-16T14:03:54.931Z,29.30
2018-10-16T14:06:23.111Z,29.00
2018-10-16T14:08:51.298Z,28.60
2018-10-16T14:11:19.481Z,28.20
2018-10-16T14:13:47.686Z,28.00
2018-10-16T14:16:16.151Z,27.70
2018-10-16T14:18:44.169Z,27.40
2018-10-16T14:21:12.345Z,27.20
2018-10-16T14:23:40.515Z,26.90
2018-10-16T14:26:08.749Z,26.60
2018-10-16T14:28:37.802Z,26.30
2018-10-16T14:31:06.426Z,26.00
2018-10-16T14:33:34.624Z,25.70
2018-10-16T14:36:02.774Z,25.50
2018-10-16T14:38:30.991Z,25.30
2018-10-16T14:40:59.166Z,25.10
2018-10-16T14:43:27.338Z,25.00
2018-10-16T14:45:55.628Z,24.90
2018-10-16T14:48:23.726Z,24.70
2018-10-16T14:50:51.910Z,24.60
2018-10-16T14:53:20.086Z,24.50
2018-10-16T14:55:48.274Z,24.50
2018-10-16T14:58:16.563Z,24.40
2018-10-16T15:00:44.545Z,24.30
2018-10-16T15:03:12.634Z,24.20
2018-10-16T15:05:40.813Z,24.20
2018-10-16T15:08:09.111Z,24.10
2018-10-16T15:10:37.201Z,24.00
2018-10-16T15:13:05.766Z,23.90
2018-10-16T15:15:33.862Z,23.90
2018-10-16T15:18:02.051Z,23.80
2018-10-16T15:20:30.135Z,23.70
2018-10-16T15:22:58.361Z,23.60
2018-10-16T15:25:26.530Z,23.60
2018-10-16T15:27:54.758Z,23.50
2018-10-16T15:30:22.887Z,23.50
2018-10-16T15:32:51.083Z,23.40
2018-10-16T15:35:19.286Z,23.40
2018-10-16T15:37:47.460Z,23.30
2018-10-16T15:40:15.624Z,23.30
2018-10-16T15:42:43.742Z,23.20
2018-10-16T15:45:12.438Z,23.20
2018-10-16T15:47:41.198Z,23.10
2018-10-16T15:50:10.007Z,23.00
2018-10-16T15:52:38.130Z,23.00
2018-10-16T15:55:06.926Z,22.90
2018-10-16T15:57:35.116Z,22.90
2018-10-16T16:00:03.364Z,22.80
2018-10-16T16:02:31.505Z,22.80
2018-10-16T16:04:59.694Z,22.70
2018-10-16T16:07:27.838Z,22.70
2018-10-16T16:09:56.055Z,22.60
2018-10-16T16:12:24.246Z,22.50
2018-10-16T16:14:52.314Z,22.50
2018-10-16T16:17:20.486Z,22.40
2018-10-16T16:19:48.670Z,22.30
2018-10-16T16:22:16.866Z,22.30
2018-10-16T16:24:45.052Z,22.10
2018-10-16T16:27:13.234Z,22.00
2018-10-16T16:29:41.432Z,21.90
2018-10-16T16:32:09.689Z,21.80
2018-10-16T16:34:37.815Z,21.70
2018-10-16T16:37:05.986Z,21.60
2018-10-16T16:39:34.230Z,21.50
2018-10-16T16:42:02.417Z,21.30
2018-10-16T16:44:30.559Z,21.20
2018-10-16T16:46:58.779Z,21.20
2018-10-16T16:49:26.928Z,21.20
2018-10-16T16:51:55.356Z,21.10
2018-10-16T16:54:23.503Z,21.10
2018-10-16T16:56:51.670Z,21.10
2018-10-16T16:59:19.774Z,21.10
2018-10-16T17:01:47.955Z,21.00
2018-10-16T17:04:16.150Z,21.00
2018-10-16T17:06:44.331Z,21.00
2018-10-16T17:09:13.159Z,21.00
2018-10-16T17:11:41.336Z,20.90
2018-10-16T17:14:09.588Z,20.90
2018-10-16T17:16:37.755Z,20.80
2018-10-16T17:19:06.114Z,20.80
2018-10-16T17:21:34.278Z,20.70
2018-10-16T17:24:02.461Z,20.70
2018-10-16T17:29:21.381Z,20.50
2018-10-16T17:31:49.562Z,20.40
2018-10-16T17:34:18.166Z,20.30
2018-10-16T17:36:46.341Z,20.30
2018-10-16T17:39:14.616Z,20.20
2018-10-16T17:41:42.721Z,20.10
2018-10-16T17:44:10.893Z,20.10
2018-10-16T17:46:39.094Z,20.00
2018-10-16T17:49:07.342Z,19.90
2018-10-16T17:51:36.502Z,19.90
2018-10-16T17:54:04.672Z,19.80
2018-10-16T17:56:32.862Z,19.80
2018-10-16T17:59:01.059Z,19.70
2018-10-16T18:01:29.279Z,19.60
2018-10-16T18:03:57.427Z,19.50
2018-10-16T18:06:25.622Z,19.50
2018-10-16T18:08:53.849Z,19.40
2018-10-16T18:11:21.982Z,19.40
2018-10-16T18:13:50.161Z,19.30
2018-10-16T18:16:18.357Z,19.20
2018-10-16T18:18:46.550Z,19.20
2018-10-16T18:21:14.746Z,19.10
2018-10-16T18:23:43.006Z,19.00
2018-10-16T18:26:11.110Z,19.00
2018-10-16T18:28:39.305Z,18.90
2018-10-16T18:31:07.797Z,18.90
2018-10-16T18:33:35.965Z,18.90
2018-10-16T18:36:04.334Z,18.80
2018-10-16T18:38:32.454Z,18.70
2018-10-16T18:41:00.638Z,18.70
2018-10-16T18:43:28.822Z,18.60
2018-10-16T18:45:57.021Z,18.60
2018-10-16T18:48:25.086Z,18.60
2018-10-16T18:50:53.365Z,18.60
2018-10-16T18:53:21.459Z,18.50
2018-10-16T18:55:49.659Z,18.60
2018-10-16T18:58:17.846Z,18.60
2018-10-16T19:00:46.038Z,18.60
2018-10-16T19:03:14.366Z,18.60
2018-10-16T19:05:42.384Z,18.60
2018-10-16T19:08:10.575Z,18.60
2018-10-16T19:10:38.762Z,18.60
2018-10-16T19:13:06.951Z,18.60
2018-10-16T19:15:35.144Z,18.60
2018-10-16T19:18:03.338Z,18.60
2018-10-16T19:20:31.506Z,18.60
2018-10-16T19:22:59.708Z,18.60
2018-10-16T19:25:27.887Z,18.50
2018-10-16T19:27:56.081Z,18.50
2018-10-16T19:30:24.270Z,18.50
2018-10-16T19:32:52.474Z,18.40
2018-10-16T19:35:20.630Z,18.40
2018-10-16T19:37:48.879Z,18.40
2018-10-16T19:40:17.029Z,18.40
2018-10-16T19:42:45.202Z,18.40
2018-10-16T19:45:13.414Z,18.40
2018-10-16T19:47:41.566Z,18.40
2018-10-16T19:50:10.490Z,18.30
2018-10-16T19:52:38.666Z,18.30
2018-10-16T19:55:06.870Z,18.30
2018-10-16T19:57:35.038Z,18.30
2018-10-16T20:00:03.246Z,18.30
2018-10-16T20:02:31.442Z,18.20
2018-10-16T20:04:59.594Z,18.20
2018-10-16T20:07:27.782Z,18.20
2018-10-16T20:09:56.049Z,18.20
2018-10-16T20:12:24.568Z,18.20
2018-10-16T20:14:52.646Z,18.10
2018-10-16T20:17:20.838Z,18.10
2018-10-16T20:19:49.127Z,18.10
2018-10-16T20:22:17.204Z,18.10
2018-10-16T20:24:45.314Z,18.00
2018-10-16T20:27:13.482Z,18.00
2018-10-16T20:29:41.702Z,18.00
2018-10-16T20:32:09.846Z,17.90
2018-10-16T20:34:37.950Z,17.90
2018-10-16T20:37:06.160Z,17.90
2018-10-16T20:39:34.334Z,17.90
2018-10-16T20:42:02.565Z,17.90
2018-10-16T20:44:30.698Z,17.90
2018-10-16T20:46:58.881Z,17.90
2018-10-16T20:49:27.073Z,17.90
2018-10-16T20:51:55.574Z,17.90
2018-10-16T20:54:23.749Z,17.90
2018-10-16T20:56:51.933Z,17.90
2018-10-16T20:59:20.130Z,17.90
2018-10-16T21:01:48.359Z,17.90
2018-10-16T21:04:16.502Z,17.80
2018-10-16T21:06:45.101Z,17.80
2018-10-16T21:09:14.106Z,17.70
2018-10-16T21:11:42.281Z,17.70
2018-10-16T21:14:10.474Z,17.60
2018-10-16T21:16:38.674Z,17.60
2018-10-16T21:19:06.907Z,17.60
2018-10-16T21:21:35.150Z,17.50
2018-10-16T21:24:03.335Z,17.50
2018-10-16T21:26:31.526Z,17.50
2018-10-16T21:28:59.738Z,17.50
2018-10-16T21:31:27.905Z,17.50
2018-10-16T21:33:56.086Z,17.50
2018-10-16T21:36:24.426Z,17.50
2018-10-16T21:38:52.577Z,17.50
2018-10-16T21:41:20.735Z,17.40
2018-10-16T21:43:48.953Z,17.40
2018-10-16T21:46:17.109Z,17.40
2018-10-16T21:48:45.302Z,17.40
2018-10-16T21:51:13.499Z,17.30
2018-10-16T21:53:41.699Z,17.30
2018-10-16T21:56:09.855Z,17.30
2018-10-16T21:58:38.054Z,17.20
2018-10-16T22:01:08.357Z,17.20
2018-10-16T22:03:36.470Z,17.20
2018-10-16T22:06:04.710Z,17.20
2018-10-16T22:08:32.845Z,17.20
2018-10-16T22:11:01.117Z,17.10
2018-10-16T22:13:29.253Z,17.10
2018-10-16T22:15:57.397Z,17.00
2018-10-16T22:18:25.606Z,17.00
2018-10-16T22:20:53.766Z,17.00
2018-10-16T22:23:21.961Z,16.90
2018-10-16T22:25:50.144Z,16.90
2018-10-16T22:28:18.345Z,16.80
2018-10-16T22:30:46.520Z,16.80
2018-10-16T22:33:14.770Z,16.70
2018-10-16T22:35:42.882Z,16.60
2018-10-16T22:38:11.085Z,16.60
2018-10-16T22:40:39.269Z,16.50
2018-10-16T22:43:07.481Z,16.50
2018-10-16T22:45:35.864Z,16.40
2018-10-16T22:48:04.321Z,16.40
2018-10-16T22:50:32.433Z,16.30
2018-10-16T22:53:00.635Z,16.30
2018-10-16T22:55:28.811Z,16.20
2018-10-16T22:57:56.979Z,16.20
2018-10-16T23:00:25.174Z,16.10
2018-10-16T23:02:53.350Z,16.00
2018-10-16T23:05:21.549Z,16.00
2018-10-16T23:07:49.722Z,15.90
2018-10-16T23:10:17.954Z,15.90
2018-10-16T23:12:50.337Z,15.80
2018-10-16T23:15:18.488Z,15.80
2018-10-16T23:17:46.661Z,15.70
2018-10-16T23:20:14.757Z,15.70
2018-10-16T23:22:42.934Z,15.60
2018-10-16T23:25:11.125Z,15.60
2018-10-16T23:27:39.248Z,15.50
2018-10-16T23:30:07.313Z,15.40
2018-10-16T23:32:35.491Z,15.40
2018-10-16T23:35:03.743Z,15.40
2018-10-16T23:37:31.870Z,15.30
2018-10-16T23:40:00.054Z,15.30
2018-10-16T23:42:28.235Z,15.30
2018-10-16T23:44:56.422Z,15.20
2018-10-16T23:47:24.622Z,15.20
2018-10-16T23:49:52.806Z,15.20
2018-10-16T23:52:20.985Z,15.10
2018-10-16T23:54:49.166Z,15.10
2018-10-16T23:57:17.346Z,15.10
2018-10-16T23:59:45.545Z,15.00
